Hlavní strana
METAR-TAF:

METAR-TAF

Letiště :

Glasgow Municipal Airport

Glasgow, Kentucky, Spojené státy americké

zeměpisná šířka: 37-01-54N, zeměpisná délka: 085-57-13W, výška: 218 m

Aktuální stav počasí

Zpráva byla vytvořena před 10 minutami, v 07:55 UTC
Severní vítr 6 kt
Teplota -5°C
Vlhkost vzduchu 73%
Tlak 1035 hPa
Viditelnost: 16.1 km
Zataženo ve výšce 3100 ft

METAR: KGLW 210755Z AUTO 36006KT 10SM OVC031 M05/M09 A3057 RMK AO2 T10531092

Čas: 02:05 (08:05 UTC)


TAF: chybějící

Stav a předpovědi počasí z více než 4 000 letišť (zprávy METAR a TAF).

Červené a žluté tečky na mapě představují dostupné meteorologické stanice.

Když kurzor umístíte na tečku, zobrazí se název stanice.

Pak kliknutím zobrazíte stav a předpověď počasí.

Chcete-li změnit mapu, kliknutím na zelené tlačítko se znaménkem +mapu přiblížíte, kliknutím na zelené tlačítko se znaménkem – mapu oddálíte a kliknutím na zelené šipky přejdete na sousední mapy.


METAR-TAF: